Gambler — LELC — position and weather

sailwx.info

Track history (hours):
 
Tides and Currents Weather Stations Pressure Air Temp Water Temp Dewpoint Dewpoint Depression Visibility Wind Speed Wind Dir Waves Ship Positions

Gambler

Last reported at 2015-Mar-28 16:33 UTC. Time now 2015-Apr-02 01:27 UTC.
Position N 63°40' E 009°16'.

Length 70 m; draft 6 m.

Type: Fishing. MMSI: 258412000.

Date/timePositionNaut miles runAvg speedWind from/ knotsBaromVisibWave heightAir tempDewpointWater temp
2015-Mar-28 16:33N 63°40' E 009°16'8410.5
2015-Mar-28 08:33N 64°49' E 011°08'1010.5
2015-Mar-28 07:33N 64°56' E 011°25'69 9.8
2015-Mar-28 00:30N 65°60' E 012°30'13 9.6
2015-Mar-27 23:06N 66°13' E 012°38'610.0
2015-Mar-27 22:32N 66°15' E 012°26'10 9.3
2015-Mar-27 21:26N 66°22' E 012°07'8 8.7
2015-Mar-27 20:32N 66°30' E 012°06'0 0.1
2015-Mar-27 19:32N 66°30' E 012°06'0 0.0
2015-Mar-27 18:33N 66°30' E 012°06'0 0.0
2015-Mar-27 17:33N 66°30' E 012°06'0 0.0
2015-Mar-27 16:22N 66°30' E 012°06'0 0.0
2015-Mar-27 15:21N 66°30' E 012°06'0 0.0
2015-Mar-27 14:33N 66°30' E 012°06'0 0.0
2015-Mar-27 12:33N 66°30' E 012°06'0 0.0
2015-Mar-27 11:33N 66°30' E 012°06'0 0.0
2015-Mar-27 10:32N 66°30' E 012°06'0 0.0
2015-Mar-27 09:33N 66°30' E 012°06'0 0.0
2015-Mar-27 08:33N 66°30' E 012°06'0 0.0
2015-Mar-27 07:33N 66°30' E 012°06'0 0.0
2015-Mar-27 06:33N 66°30' E 012°06'0 0.0
2015-Mar-27 05:33N 66°30' E 012°06'2 1.9
2015-Mar-27 04:33N 66°29' E 012°11'8 7.7
2015-Mar-27 03:30N 66°36' E 012°21'73 8.8
2015-Mar-26 19:09N 67°38' E 014°03'810.1
2015-Mar-26 18:19N 67°45' E 014°17'15010.2
2015-Mar-26 03:32N 69°37' E 018°52'121 4.0
2015-Mar-24 21:27N 70°54' E 023°26'118 2.3
2015-Mar-22 18:28N 69°41' E 018°52'118 9.9
2015-Mar-22 06:33N 68°10' E 015°24'1110.9
2015-Mar-22 05:33N 68°03' E 015°03'2211.0
2015-Mar-22 03:33N 67°47' E 014°22'1211.0
2015-Mar-22 02:26N 67°35' E 014°21'1011.1
2015-Mar-22 01:33N 67°25' E 014°27'8 8.3
2015-Mar-22 00:33N 67°17' E 014°23'0 0.1
2015-Mar-21 23:33N 67°17' E 014°23'0 0.0
2015-Mar-21 22:33N 67°17' E 014°23'0 0.0
2015-Mar-21 21:33N 67°17' E 014°23'0 0.0
2015-Mar-21 20:33N 67°17' E 014°23'0 0.0
2015-Mar-21 19:33N 67°17' E 014°23'0 0.0
2015-Mar-21 18:33N 67°17' E 014°23'0 0.0
2015-Mar-21 17:33N 67°17' E 014°23'0 0.0
2015-Mar-21 16:33N 67°17' E 014°23'0 0.0
2015-Mar-21 15:33N 67°17' E 014°23'0 0.0
2015-Mar-21 14:33N 67°17' E 014°23'0 0.0
2015-Mar-21 13:33N 67°17' E 014°23'0 0.0
2015-Mar-21 12:33N 67°17' E 014°23'0 0.0
2015-Mar-21 11:33N 67°17' E 014°23'0 0.1
2015-Mar-21 10:33N 67°17' E 014°23'0 0.0
2015-Mar-21 09:33N 67°17' E 014°23'0 0.0
2015-Mar-21 08:33N 67°17' E 014°23'0 0.0
2015-Mar-21 07:33N 67°17' E 014°23'0 0.0
2015-Mar-21 06:33N 67°17' E 014°23'0 0.0
2015-Mar-21 05:33N 67°17' E 014°23'0 0.0
2015-Mar-21 04:33N 67°17' E 014°23'0 0.0
2015-Mar-21 03:33N 67°17' E 014°23'0 0.0
2015-Mar-21 02:33N 67°17' E 014°23'0 0.1
2015-Mar-21 01:33N 67°17' E 014°23'6 5.6
2015-Mar-21 00:33N 67°23' E 014°25'9 8.6
2015-Mar-20 23:30N 67°32' E 014°22'1210.0
2015-Mar-20 22:20N 67°43' E 014°20'8 9.8
2015-Mar-20 21:34N 67°50' E 014°27'10 9.8
2015-Mar-20 20:32N 67°57' E 014°46'1010.1
2015-Mar-20 19:33N 68°04' E 015°06'1010.2
2015-Mar-20 18:33N 68°11' E 015°27'1211.0
2015-Mar-20 17:27N 68°19' E 015°51'102 9.8
2015-Mar-20 07:05N 69°37' E 018°52'8 9.3
2015-Mar-20 06:14N 69°44' E 019°04'7710.0
2015-Mar-19 22:33N 70°26' E 022°12'1111.0
2015-Mar-19 21:33N 70°29' E 022°43'1110.8
2015-Mar-19 20:33N 70°35' E 023°10'1211.8
2015-Mar-19 19:33N 70°44' E 023°34'20 1.3
2015-Mar-19 03:29N 70°53' E 022°39'  
Track history (hours):
 
Tides and Currents Weather Stations Pressure Air Temp Water Temp Dewpoint Dewpoint Depression Visibility Wind Speed Wind Dir Waves Ship Positions

Gambler

Last reported at 2015-Mar-28 16:33 UTC. Time now 2015-Apr-02 01:27 UTC.
Position N 63°40' E 009°16'.

Length 70 m; draft 6 m.

Type: Fishing. MMSI: 258412000.

Date/timePositionNaut miles runAvg speedWind from/ knotsBaromVisibWave heightAir tempDewpointWater temp
2015-Mar-28 16:33N 63°40' E 009°16'8410.5
2015-Mar-28 08:33N 64°49' E 011°08'1010.5
2015-Mar-28 07:33N 64°56' E 011°25'69 9.8
2015-Mar-28 00:30N 65°60' E 012°30'13 9.6
2015-Mar-27 23:06N 66°13' E 012°38'610.0
2015-Mar-27 22:32N 66°15' E 012°26'10 9.3
2015-Mar-27 21:26N 66°22' E 012°07'8 8.7
2015-Mar-27 20:32N 66°30' E 012°06'0 0.1
2015-Mar-27 19:32N 66°30' E 012°06'0 0.0
2015-Mar-27 18:33N 66°30' E 012°06'0 0.0
2015-Mar-27 17:33N 66°30' E 012°06'0 0.0
2015-Mar-27 16:22N 66°30' E 012°06'0 0.0
2015-Mar-27 15:21N 66°30' E 012°06'0 0.0
2015-Mar-27 14:33N 66°30' E 012°06'0 0.0
2015-Mar-27 12:33N 66°30' E 012°06'0 0.0
2015-Mar-27 11:33N 66°30' E 012°06'0 0.0
2015-Mar-27 10:32N 66°30' E 012°06'0 0.0
2015-Mar-27 09:33N 66°30' E 012°06'0 0.0
2015-Mar-27 08:33N 66°30' E 012°06'0 0.0
2015-Mar-27 07:33N 66°30' E 012°06'0 0.0
2015-Mar-27 06:33N 66°30' E 012°06'0 0.0
2015-Mar-27 05:33N 66°30' E 012°06'2 1.9
2015-Mar-27 04:33N 66°29' E 012°11'8 7.7
2015-Mar-27 03:30N 66°36' E 012°21'73 8.8
2015-Mar-26 19:09N 67°38' E 014°03'810.1
2015-Mar-26 18:19N 67°45' E 014°17'15010.2
2015-Mar-26 03:32N 69°37' E 018°52'121 4.0
2015-Mar-24 21:27N 70°54' E 023°26'118 2.3
2015-Mar-22 18:28N 69°41' E 018°52'118 9.9
2015-Mar-22 06:33N 68°10' E 015°24'1110.9
2015-Mar-22 05:33N 68°03' E 015°03'2211.0
2015-Mar-22 03:33N 67°47' E 014°22'1211.0
2015-Mar-22 02:26N 67°35' E 014°21'1011.1
2015-Mar-22 01:33N 67°25' E 014°27'8 8.3
2015-Mar-22 00:33N 67°17' E 014°23'0 0.1
2015-Mar-21 23:33N 67°17' E 014°23'0 0.0
2015-Mar-21 22:33N 67°17' E 014°23'0 0.0
2015-Mar-21 21:33N 67°17' E 014°23'0 0.0
2015-Mar-21 20:33N 67°17' E 014°23'0 0.0
2015-Mar-21 19:33N 67°17' E 014°23'0 0.0
2015-Mar-21 18:33N 67°17' E 014°23'0 0.0
2015-Mar-21 17:33N 67°17' E 014°23'0 0.0
2015-Mar-21 16:33N 67°17' E 014°23'0 0.0
2015-Mar-21 15:33N 67°17' E 014°23'0 0.0
2015-Mar-21 14:33N 67°17' E 014°23'0 0.0
2015-Mar-21 13:33N 67°17' E 014°23'0 0.0
2015-Mar-21 12:33N 67°17' E 014°23'0 0.0
2015-Mar-21 11:33N 67°17' E 014°23'0 0.1
2015-Mar-21 10:33N 67°17' E 014°23'0 0.0
2015-Mar-21 09:33N 67°17' E 014°23'0 0.0
2015-Mar-21 08:33N 67°17' E 014°23'0 0.0
2015-Mar-21 07:33N 67°17' E 014°23'0 0.0
2015-Mar-21 06:33N 67°17' E 014°23'0 0.0
2015-Mar-21 05:33N 67°17' E 014°23'0 0.0
2015-Mar-21 04:33N 67°17' E 014°23'0 0.0
2015-Mar-21 03:33N 67°17' E 014°23'0 0.0
2015-Mar-21 02:33N 67°17' E 014°23'0 0.1
2015-Mar-21 01:33N 67°17' E 014°23'6 5.6
2015-Mar-21 00:33N 67°23' E 014°25'9 8.6
2015-Mar-20 23:30N 67°32' E 014°22'1210.0
2015-Mar-20 22:20N 67°43' E 014°20'8 9.8
2015-Mar-20 21:34N 67°50' E 014°27'10 9.8
2015-Mar-20 20:32N 67°57' E 014°46'1010.1
2015-Mar-20 19:33N 68°04' E 015°06'1010.2
2015-Mar-20 18:33N 68°11' E 015°27'1211.0
2015-Mar-20 17:27N 68°19' E 015°51'102 9.8
2015-Mar-20 07:05N 69°37' E 018°52'8 9.3
2015-Mar-20 06:14N 69°44' E 019°04'7710.0
2015-Mar-19 22:33N 70°26' E 022°12'1111.0
2015-Mar-19 21:33N 70°29' E 022°43'1110.8
2015-Mar-19 20:33N 70°35' E 023°10'1211.8
2015-Mar-19 19:33N 70°44' E 023°34'20 1.3
2015-Mar-19 03:29N 70°53' E 022°39'  

Dump ship's entire track history